sensor_id;sensor_type;location;lat;lon;timestamp;P1;durP1;ratioP1;P2;durP2;ratioP2
55007;SDS011;40902;45.116;21.296;2024-02-15T00:01:00;32.75;;;22.70;;
55007;SDS011;40902;45.116;21.296;2024-02-15T00:03:26;32.78;;;20.63;;
55007;SDS011;40902;45.116;21.296;2024-02-15T00:05:52;30.13;;;20.15;;
55007;SDS011;40902;45.116;21.296;2024-02-15T00:08:17;30.48;;;19.83;;
55007;SDS011;40902;45.116;21.296;2024-02-15T00:10:45;29.55;;;18.73;;
55007;SDS011;40902;45.116;21.296;2024-02-15T00:13:12;28.38;;;19.42;;
55007;SDS011;40902;45.116;21.296;2024-02-15T00:15:39;32.78;;;20.10;;
55007;SDS011;40902;45.116;21.296;2024-02-15T00:18:05;34.10;;;22.98;;
55007;SDS011;40902;45.116;21.296;2024-02-15T00:20:32;33.55;;;22.42;;
55007;SDS011;40902;45.116;21.296;2024-02-15T00:23:00;38.10;;;23.83;;
55007;SDS011;40902;45.116;21.296;2024-02-15T00:25:26;38.17;;;24.70;;
55007;SDS011;40902;45.116;21.296;2024-02-15T00:27:52;39.40;;;26.00;;
55007;SDS011;40902;45.116;21.296;2024-02-15T00:30:18;39.10;;;24.70;;
55007;SDS011;40902;45.116;21.296;2024-02-15T00:32:43;37.20;;;24.23;;
55007;SDS011;40902;45.116;21.296;2024-02-15T00:35:11;32.03;;;21.23;;
55007;SDS011;40902;45.116;21.296;2024-02-15T00:37:38;29.73;;;20.73;;
55007;SDS011;40902;45.116;21.296;2024-02-15T00:40:05;32.67;;;20.90;;
55007;SDS011;40902;45.116;21.296;2024-02-15T00:42:32;31.85;;;21.73;;
55007;SDS011;40902;45.116;21.296;2024-02-15T00:44:58;32.00;;;21.95;;
55007;SDS011;40902;45.116;21.296;2024-02-15T00:47:24;41.00;;;25.58;;
55007;SDS011;40902;45.116;21.296;2024-02-15T00:49:49;53.25;;;30.90;;
55007;SDS011;40902;45.116;21.296;2024-02-15T00:52:16;45.92;;;26.20;;
55007;SDS011;40902;45.116;21.296;2024-02-15T00:54:45;41.17;;;24.88;;
55007;SDS011;40902;45.116;21.296;2024-02-15T00:57:11;37.05;;;24.02;;
55007;SDS011;40902;45.116;21.296;2024-02-15T00:59:37;39.70;;;24.50;;
55007;SDS011;40902;45.116;21.296;2024-02-15T01:02:02;42.45;;;26.30;;
55007;SDS011;40902;45.116;21.296;2024-02-15T01:04:28;40.47;;;26.17;;
55007;SDS011;40902;45.116;21.296;2024-02-15T01:06:54;40.90;;;24.73;;
55007;SDS011;40902;45.116;21.296;2024-02-15T01:09:21;34.80;;;22.23;;
55007;SDS011;40902;45.116;21.296;2024-02-15T01:11:47;35.50;;;21.45;;
55007;SDS011;40902;45.116;21.296;2024-02-15T01:14:13;33.33;;;21.40;;
55007;SDS011;40902;45.116;21.296;2024-02-15T01:16:40;33.50;;;22.45;;
55007;SDS011;40902;45.116;21.296;2024-02-15T01:19:06;34.70;;;22.90;;
55007;SDS011;40902;45.116;21.296;2024-02-15T01:21:32;33.55;;;20.95;;
55007;SDS011;40902;45.116;21.296;2024-02-15T01:23:58;31.08;;;21.05;;
55007;SDS011;40902;45.116;21.296;2024-02-15T01:26:25;30.30;;;20.50;;
55007;SDS011;40902;45.116;21.296;2024-02-15T01:28:52;29.10;;;19.90;;
55007;SDS011;40902;45.116;21.296;2024-02-15T01:31:18;27.85;;;19.38;;
55007;SDS011;40902;45.116;21.296;2024-02-15T01:33:44;29.10;;;19.27;;
55007;SDS011;40902;45.116;21.296;2024-02-15T01:36:16;27.83;;;19.90;;
55007;SDS011;40902;45.116;21.296;2024-02-15T01:38:43;30.70;;;20.50;;
55007;SDS011;40902;45.116;21.296;2024-02-15T01:41:10;28.25;;;19.42;;
55007;SDS011;40902;45.116;21.296;2024-02-15T01:43:36;30.50;;;20.85;;
55007;SDS011;40902;45.116;21.296;2024-02-15T01:46:11;29.15;;;19.80;;
55007;SDS011;40902;45.116;21.296;2024-02-15T01:48:37;30.20;;;20.42;;
55007;SDS011;40902;45.116;21.296;2024-02-15T01:51:05;32.13;;;20.27;;
55007;SDS011;40902;45.116;21.296;2024-02-15T01:53:32;29.95;;;20.77;;
55007;SDS011;40902;45.116;21.296;2024-02-15T01:55:59;30.95;;;21.00;;
55007;SDS011;40902;45.116;21.296;2024-02-15T01:58:28;34.67;;;21.02;;
55007;SDS011;40902;45.116;21.296;2024-02-15T02:00:57;36.67;;;22.50;;
55007;SDS011;40902;45.116;21.296;2024-02-15T02:03:23;37.90;;;23.95;;
55007;SDS011;40902;45.116;21.296;2024-02-15T02:05:49;46.05;;;27.50;;
55007;SDS011;40902;45.116;21.296;2024-02-15T02:08:15;40.70;;;24.95;;
55007;SDS011;40902;45.116;21.296;2024-02-15T02:10:40;36.13;;;22.60;;
55007;SDS011;40902;45.116;21.296;2024-02-15T02:13:07;36.83;;;24.13;;
55007;SDS011;40902;45.116;21.296;2024-02-15T02:15:35;37.92;;;24.20;;
55007;SDS011;40902;45.116;21.296;2024-02-15T02:18:02;40.92;;;25.10;;
55007;SDS011;40902;45.116;21.296;2024-02-15T02:20:32;37.92;;;25.20;;
55007;SDS011;40902;45.116;21.296;2024-02-15T02:23:03;34.80;;;23.85;;
55007;SDS011;40902;45.116;21.296;2024-02-15T02:25:35;35.42;;;23.20;;
55007;SDS011;40902;45.116;21.296;2024-02-15T02:28:01;36.95;;;23.63;;
55007;SDS011;40902;45.116;21.296;2024-02-15T02:30:27;36.60;;;24.08;;
55007;SDS011;40902;45.116;21.296;2024-02-15T02:32:57;34.85;;;22.73;;
55007;SDS011;40902;45.116;21.296;2024-02-15T02:35:24;35.30;;;22.52;;
55007;SDS011;40902;45.116;21.296;2024-02-15T02:37:51;37.47;;;24.02;;
55007;SDS011;40902;45.116;21.296;2024-02-15T02:40:19;32.78;;;23.15;;
55007;SDS011;40902;45.116;21.296;2024-02-15T02:42:52;35.63;;;23.55;;
55007;SDS011;40902;45.116;21.296;2024-02-15T02:45:19;34.20;;;23.75;;
55007;SDS011;40902;45.116;21.296;2024-02-15T02:47:47;33.63;;;22.77;;
55007;SDS011;40902;45.116;21.296;2024-02-15T02:50:16;32.28;;;22.13;;
55007;SDS011;40902;45.116;21.296;2024-02-15T02:52:42;39.28;;;25.10;;
55007;SDS011;40902;45.116;21.296;2024-02-15T02:55:09;47.70;;;30.30;;
55007;SDS011;40902;45.116;21.296;2024-02-15T02:57:36;45.50;;;29.15;;
55007;SDS011;40902;45.116;21.296;2024-02-15T03:00:03;46.47;;;29.58;;
55007;SDS011;40902;45.116;21.296;2024-02-15T03:02:33;44.35;;;30.15;;
55007;SDS011;40902;45.116;21.296;2024-02-15T03:05:03;43.45;;;27.63;;
55007;SDS011;40902;45.116;21.296;2024-02-15T03:07:31;44.05;;;28.80;;
55007;SDS011;40902;45.116;21.296;2024-02-15T03:09:58;43.95;;;29.85;;
55007;SDS011;40902;45.116;21.296;2024-02-15T03:12:23;38.88;;;26.83;;
55007;SDS011;40902;45.116;21.296;2024-02-15T03:14:51;42.63;;;26.70;;
55007;SDS011;40902;45.116;21.296;2024-02-15T03:17:17;39.78;;;25.30;;
55007;SDS011;40902;45.116;21.296;2024-02-15T03:19:43;40.58;;;26.42;;
55007;SDS011;40902;45.116;21.296;2024-02-15T03:22:08;38.47;;;26.33;;
55007;SDS011;40902;45.116;21.296;2024-02-15T03:24:35;39.25;;;25.98;;
55007;SDS011;40902;45.116;21.296;2024-02-15T03:27:00;41.03;;;26.25;;
55007;SDS011;40902;45.116;21.296;2024-02-15T03:29:26;44.83;;;27.92;;
55007;SDS011;40902;45.116;21.296;2024-02-15T03:31:54;44.55;;;25.38;;
55007;SDS011;40902;45.116;21.296;2024-02-15T03:34:20;47.67;;;26.75;;
55007;SDS011;40902;45.116;21.296;2024-02-15T03:36:46;39.55;;;26.08;;
55007;SDS011;40902;45.116;21.296;2024-02-15T03:39:18;45.75;;;29.33;;
55007;SDS011;40902;45.116;21.296;2024-02-15T03:41:45;37.72;;;25.48;;
55007;SDS011;40902;45.116;21.296;2024-02-15T03:44:14;49.42;;;30.88;;
55007;SDS011;40902;45.116;21.296;2024-02-15T03:46:40;39.35;;;25.17;;
55007;SDS011;40902;45.116;21.296;2024-02-15T03:49:06;34.15;;;22.80;;
55007;SDS011;40902;45.116;21.296;2024-02-15T03:51:33;52.05;;;35.25;;
55007;SDS011;40902;45.116;21.296;2024-02-15T03:54:00;57.40;;;36.47;;
55007;SDS011;40902;45.116;21.296;2024-02-15T03:56:25;42.78;;;28.52;;
55007;SDS011;40902;45.116;21.296;2024-02-15T03:58:51;34.13;;;23.45;;
55007;SDS011;40902;45.116;21.296;2024-02-15T04:01:17;26.23;;;18.48;;
55007;SDS011;40902;45.116;21.296;2024-02-15T04:03:43;28.63;;;19.17;;
55007;SDS011;40902;45.116;21.296;2024-02-15T04:06:08;23.65;;;15.93;;
55007;SDS011;40902;45.116;21.296;2024-02-15T04:08:35;26.35;;;16.63;;
55007;SDS011;40902;45.116;21.296;2024-02-15T04:11:04;24.42;;;16.30;;
55007;SDS011;40902;45.116;21.296;2024-02-15T04:13:35;24.95;;;15.43;;
55007;SDS011;40902;45.116;21.296;2024-02-15T04:16:00;24.80;;;16.77;;
55007;SDS011;40902;45.116;21.296;2024-02-15T04:18:26;28.85;;;19.15;;
55007;SDS011;40902;45.116;21.296;2024-02-15T04:20:54;24.70;;;16.83;;
55007;SDS011;40902;45.116;21.296;2024-02-15T04:23:20;24.58;;;16.05;;
55007;SDS011;40902;45.116;21.296;2024-02-15T04:25:46;24.02;;;17.52;;
55007;SDS011;40902;45.116;21.296;2024-02-15T04:28:16;28.42;;;17.85;;
55007;SDS011;40902;45.116;21.296;2024-02-15T04:30:41;26.13;;;16.80;;
55007;SDS011;40902;45.116;21.296;2024-02-15T04:33:07;26.35;;;17.60;;
55007;SDS011;40902;45.116;21.296;2024-02-15T04:35:33;29.15;;;18.35;;
55007;SDS011;40902;45.116;21.296;2024-02-15T04:38:00;25.73;;;17.60;;
55007;SDS011;40902;45.116;21.296;2024-02-15T04:40:26;26.08;;;18.02;;
55007;SDS011;40902;45.116;21.296;2024-02-15T04:42:52;23.48;;;16.58;;
55007;SDS011;40902;45.116;21.296;2024-02-15T04:45:18;24.67;;;16.42;;
55007;SDS011;40902;45.116;21.296;2024-02-15T04:47:47;24.00;;;16.70;;
55007;SDS011;40902;45.116;21.296;2024-02-15T04:50:15;22.60;;;16.48;;
55007;SDS011;40902;45.116;21.296;2024-02-15T04:52:43;25.02;;;15.93;;
55007;SDS011;40902;45.116;21.296;2024-02-15T04:55:10;24.48;;;16.85;;
55007;SDS011;40902;45.116;21.296;2024-02-15T04:57:37;24.75;;;15.82;;
55007;SDS011;40902;45.116;21.296;2024-02-15T05:00:05;20.05;;;14.73;;
55007;SDS011;40902;45.116;21.296;2024-02-15T05:02:36;21.05;;;16.02;;
55007;SDS011;40902;45.116;21.296;2024-02-15T05:05:06;25.33;;;17.30;;
55007;SDS011;40902;45.116;21.296;2024-02-15T05:07:33;25.65;;;17.05;;
55007;SDS011;40902;45.116;21.296;2024-02-15T05:10:02;27.55;;;17.65;;
55007;SDS011;40902;45.116;21.296;2024-02-15T05:12:31;25.08;;;16.33;;
55007;SDS011;40902;45.116;21.296;2024-02-15T05:14:58;25.60;;;16.88;;
55007;SDS011;40902;45.116;21.296;2024-02-15T05:17:24;25.83;;;15.82;;
55007;SDS011;40902;45.116;21.296;2024-02-15T05:19:50;25.63;;;17.25;;
55007;SDS011;40902;45.116;21.296;2024-02-15T05:22:16;23.02;;;16.63;;
55007;SDS011;40902;45.116;21.296;2024-02-15T05:24:43;24.15;;;16.45;;
55007;SDS011;40902;45.116;21.296;2024-02-15T05:27:09;27.63;;;18.52;;
55007;SDS011;40902;45.116;21.296;2024-02-15T05:29:35;25.63;;;16.70;;
55007;SDS011;40902;45.116;21.296;2024-02-15T05:32:01;24.80;;;17.50;;
55007;SDS011;40902;45.116;21.296;2024-02-15T05:34:27;24.80;;;16.65;;
55007;SDS011;40902;45.116;21.296;2024-02-15T05:36:56;24.13;;;17.27;;
55007;SDS011;40902;45.116;21.296;2024-02-15T05:39:21;25.77;;;17.95;;
55007;SDS011;40902;45.116;21.296;2024-02-15T05:41:48;23.50;;;17.15;;
55007;SDS011;40902;45.116;21.296;2024-02-15T05:44:14;24.55;;;17.38;;
55007;SDS011;40902;45.116;21.296;2024-02-15T05:46:44;24.08;;;16.42;;
55007;SDS011;40902;45.116;21.296;2024-02-15T05:49:10;27.73;;;17.58;;
55007;SDS011;40902;45.116;21.296;2024-02-15T05:51:40;25.73;;;17.58;;
55007;SDS011;40902;45.116;21.296;2024-02-15T05:54:06;24.77;;;17.13;;
55007;SDS011;40902;45.116;21.296;2024-02-15T05:56:32;26.67;;;17.52;;
55007;SDS011;40902;45.116;21.296;2024-02-15T05:58:58;23.88;;;16.85;;
55007;SDS011;40902;45.116;21.296;2024-02-15T06:01:24;24.27;;;17.27;;
55007;SDS011;40902;45.116;21.296;2024-02-15T06:03:50;25.30;;;17.35;;
55007;SDS011;40902;45.116;21.296;2024-02-15T06:06:19;26.25;;;18.85;;
55007;SDS011;40902;45.116;21.296;2024-02-15T06:08:46;27.52;;;19.88;;
55007;SDS011;40902;45.116;21.296;2024-02-15T06:11:13;27.20;;;19.10;;
55007;SDS011;40902;45.116;21.296;2024-02-15T06:13:45;29.63;;;20.35;;
55007;SDS011;40902;45.116;21.296;2024-02-15T06:16:11;30.25;;;20.63;;
55007;SDS011;40902;45.116;21.296;2024-02-15T06:18:37;29.88;;;21.77;;
55007;SDS011;40902;45.116;21.296;2024-02-15T06:21:03;30.60;;;20.98;;
55007;SDS011;40902;45.116;21.296;2024-02-15T06:23:29;32.20;;;21.67;;
55007;SDS011;40902;45.116;21.296;2024-02-15T06:25:56;31.88;;;20.13;;
55007;SDS011;40902;45.116;21.296;2024-02-15T06:28:28;27.27;;;18.60;;
55007;SDS011;40902;45.116;21.296;2024-02-15T06:31:13;25.98;;;18.17;;
55007;SDS011;40902;45.116;21.296;2024-02-15T06:33:58;29.38;;;19.95;;
55007;SDS011;40902;45.116;21.296;2024-02-15T06:36:46;28.40;;;19.02;;
55007;SDS011;40902;45.116;21.296;2024-02-15T06:39:32;45.50;;;25.13;;
55007;SDS011;40902;45.116;21.296;2024-02-15T06:44:36;31.83;;;21.77;;
55007;SDS011;40902;45.116;21.296;2024-02-15T06:47:03;34.53;;;22.23;;
55007;SDS011;40902;45.116;21.296;2024-02-15T06:49:29;37.72;;;23.80;;
55007;SDS011;40902;45.116;21.296;2024-02-15T06:51:55;38.97;;;24.52;;
55007;SDS011;40902;45.116;21.296;2024-02-15T06:54:21;36.58;;;25.65;;
55007;SDS011;40902;45.116;21.296;2024-02-15T06:56:47;37.00;;;24.80;;
55007;SDS011;40902;45.116;21.296;2024-02-15T06:59:13;33.03;;;23.90;;
55007;SDS011;40902;45.116;21.296;2024-02-15T07:01:42;33.75;;;23.17;;
55007;SDS011;40902;45.116;21.296;2024-02-15T07:04:08;34.83;;;22.65;;
55007;SDS011;40902;45.116;21.296;2024-02-15T07:06:37;31.45;;;21.30;;
55007;SDS011;40902;45.116;21.296;2024-02-15T07:09:04;29.00;;;20.30;;
55007;SDS011;40902;45.116;21.296;2024-02-15T07:11:32;33.97;;;22.25;;
55007;SDS011;40902;45.116;21.296;2024-02-15T07:14:02;29.70;;;21.23;;
55007;SDS011;40902;45.116;21.296;2024-02-15T07:16:29;32.45;;;21.85;;
55007;SDS011;40902;45.116;21.296;2024-02-15T07:18:55;30.73;;;21.13;;
55007;SDS011;40902;45.116;21.296;2024-02-15T07:21:21;32.75;;;22.95;;
55007;SDS011;40902;45.116;21.296;2024-02-15T07:23:52;33.80;;;21.77;;
55007;SDS011;40902;45.116;21.296;2024-02-15T07:26:21;29.58;;;20.50;;
55007;SDS011;40902;45.116;21.296;2024-02-15T07:28:53;25.40;;;17.88;;
55007;SDS011;40902;45.116;21.296;2024-02-15T07:31:20;25.80;;;18.77;;
55007;SDS011;40902;45.116;21.296;2024-02-15T07:33:47;26.77;;;18.65;;
55007;SDS011;40902;45.116;21.296;2024-02-15T07:36:17;23.52;;;17.05;;
55007;SDS011;40902;45.116;21.296;2024-02-15T07:38:44;24.23;;;18.17;;
55007;SDS011;40902;45.116;21.296;2024-02-15T07:41:10;25.85;;;17.30;;
55007;SDS011;40902;45.116;21.296;2024-02-15T07:43:38;26.60;;;17.77;;
55007;SDS011;40902;45.116;21.296;2024-02-15T07:46:04;26.25;;;17.98;;
55007;SDS011;40902;45.116;21.296;2024-02-15T07:48:30;25.90;;;18.40;;
55007;SDS011;40902;45.116;21.296;2024-02-15T07:50:56;24.55;;;18.52;;
55007;SDS011;40902;45.116;21.296;2024-02-15T07:53:23;29.15;;;19.13;;
55007;SDS011;40902;45.116;21.296;2024-02-15T07:55:52;30.20;;;20.95;;
55007;SDS011;40902;45.116;21.296;2024-02-15T07:58:18;32.00;;;22.83;;
55007;SDS011;40902;45.116;21.296;2024-02-15T08:00:47;34.33;;;23.30;;
55007;SDS011;40902;45.116;21.296;2024-02-15T08:03:13;33.55;;;22.48;;
55007;SDS011;40902;45.116;21.296;2024-02-15T08:05:39;40.22;;;26.75;;
55007;SDS011;40902;45.116;21.296;2024-02-15T08:08:05;37.38;;;24.20;;
55007;SDS011;40902;45.116;21.296;2024-02-15T08:10:31;36.97;;;25.13;;
55007;SDS011;40902;45.116;21.296;2024-02-15T08:12:58;39.08;;;24.95;;
55007;SDS011;40902;45.116;21.296;2024-02-15T08:15:24;38.22;;;26.42;;
55007;SDS011;40902;45.116;21.296;2024-02-15T08:17:52;39.45;;;26.15;;
55007;SDS011;40902;45.116;21.296;2024-02-15T08:20:20;36.75;;;25.17;;
55007;SDS011;40902;45.116;21.296;2024-02-15T08:22:48;38.45;;;24.02;;
55007;SDS011;40902;45.116;21.296;2024-02-15T08:25:14;34.53;;;24.38;;
55007;SDS011;40902;45.116;21.296;2024-02-15T08:27:41;34.80;;;23.05;;
55007;SDS011;40902;45.116;21.296;2024-02-15T08:30:09;32.92;;;23.10;;
55007;SDS011;40902;45.116;21.296;2024-02-15T08:32:39;35.58;;;23.88;;
55007;SDS011;40902;45.116;21.296;2024-02-15T08:35:09;35.03;;;23.27;;
55007;SDS011;40902;45.116;21.296;2024-02-15T08:37:36;50.42;;;31.13;;
55007;SDS011;40902;45.116;21.296;2024-02-15T08:40:03;49.42;;;30.80;;
55007;SDS011;40902;45.116;21.296;2024-02-15T08:42:35;36.35;;;25.08;;
55007;SDS011;40902;45.116;21.296;2024-02-15T08:45:11;34.97;;;23.45;;
55007;SDS011;40902;45.116;21.296;2024-02-15T08:47:40;41.22;;;26.27;;
55007;SDS011;40902;45.116;21.296;2024-02-15T08:50:08;35.58;;;23.40;;
55007;SDS011;40902;45.116;21.296;2024-02-15T08:52:35;29.88;;;21.73;;
55007;SDS011;40902;45.116;21.296;2024-02-15T08:55:07;33.35;;;22.17;;
55007;SDS011;40902;45.116;21.296;2024-02-15T08:57:34;32.45;;;21.67;;
55007;SDS011;40902;45.116;21.296;2024-02-15T09:00:04;30.52;;;21.77;;
55007;SDS011;40902;45.116;21.296;2024-02-15T09:02:38;29.25;;;20.30;;
55007;SDS011;40902;45.116;21.296;2024-02-15T09:05:11;26.73;;;19.30;;
55007;SDS011;40902;45.116;21.296;2024-02-15T09:07:40;34.83;;;21.67;;
55007;SDS011;40902;45.116;21.296;2024-02-15T09:10:09;32.70;;;22.30;;
55007;SDS011;40902;45.116;21.296;2024-02-15T09:12:36;29.83;;;20.83;;
55007;SDS011;40902;45.116;21.296;2024-02-15T09:15:04;29.67;;;22.33;;
55007;SDS011;40902;45.116;21.296;2024-02-15T09:17:36;30.42;;;22.48;;
55007;SDS011;40902;45.116;21.296;2024-02-15T09:20:13;29.58;;;21.45;;
55007;SDS011;40902;45.116;21.296;2024-02-15T09:22:50;36.00;;;23.23;;
55007;SDS011;40902;45.116;21.296;2024-02-15T09:25:16;32.60;;;22.48;;
55007;SDS011;40902;45.116;21.296;2024-02-15T09:27:43;30.30;;;20.48;;
55007;SDS011;40902;45.116;21.296;2024-02-15T09:30:10;28.17;;;20.27;;
55007;SDS011;40902;45.116;21.296;2024-02-15T09:32:37;30.45;;;21.05;;
55007;SDS011;40902;45.116;21.296;2024-02-15T09:35:04;27.42;;;18.95;;
55007;SDS011;40902;45.116;21.296;2024-02-15T09:37:33;27.05;;;19.70;;
55007;SDS011;40902;45.116;21.296;2024-02-15T09:40:17;36.83;;;26.27;;
55007;SDS011;40902;45.116;21.296;2024-02-15T09:42:43;22.52;;;15.55;;
55007;SDS011;40902;45.116;21.296;2024-02-15T09:45:11;23.58;;;17.40;;
55007;SDS011;40902;45.116;21.296;2024-02-15T09:47:38;24.73;;;15.30;;
55007;SDS011;40902;45.116;21.296;2024-02-15T09:50:07;24.50;;;14.10;;
55007;SDS011;40902;45.116;21.296;2024-02-15T09:52:42;15.65;;;11.63;;
55007;SDS011;40902;45.116;21.296;2024-02-15T09:55:21;17.20;;;12.10;;
55007;SDS011;40902;45.116;21.296;2024-02-15T09:57:48;16.52;;;11.07;;
55007;SDS011;40902;45.116;21.296;2024-02-15T10:00:16;15.10;;;11.07;;
55007;SDS011;40902;45.116;21.296;2024-02-15T10:02:43;14.68;;;9.40;;
55007;SDS011;40902;45.116;21.296;2024-02-15T10:05:10;14.75;;;10.77;;
55007;SDS011;40902;45.116;21.296;2024-02-15T10:07:37;14.07;;;10.23;;
55007;SDS011;40902;45.116;21.296;2024-02-15T10:10:16;12.30;;;9.15;;
55007;SDS011;40902;45.116;21.296;2024-02-15T10:12:49;13.60;;;9.15;;
55007;SDS011;40902;45.116;21.296;2024-02-15T10:17:56;15.10;;;9.65;;
55007;SDS011;40902;45.116;21.296;2024-02-15T10:20:23;14.20;;;10.30;;
55007;SDS011;40902;45.116;21.296;2024-02-15T10:22:53;15.95;;;9.88;;
55007;SDS011;40902;45.116;21.296;2024-02-15T10:25:42;14.98;;;10.65;;
55007;SDS011;40902;45.116;21.296;2024-02-15T10:28:09;16.35;;;10.70;;
55007;SDS011;40902;45.116;21.296;2024-02-15T10:33:10;13.57;;;9.80;;
55007;SDS011;40902;45.116;21.296;2024-02-15T10:35:49;13.82;;;9.18;;
55007;SDS011;40902;45.116;21.296;2024-02-15T10:38:15;13.75;;;9.35;;
55007;SDS011;40902;45.116;21.296;2024-02-15T10:40:40;14.52;;;9.65;;
55007;SDS011;40902;45.116;21.296;2024-02-15T10:43:07;12.93;;;9.25;;
55007;SDS011;40902;45.116;21.296;2024-02-15T10:45:38;14.30;;;9.63;;
55007;SDS011;40902;45.116;21.296;2024-02-15T10:48:10;13.65;;;9.55;;
55007;SDS011;40902;45.116;21.296;2024-02-15T10:50:36;19.67;;;13.20;;
55007;SDS011;40902;45.116;21.296;2024-02-15T10:53:14;12.55;;;9.68;;
55007;SDS011;40902;45.116;21.296;2024-02-15T10:56:26;16.80;;;9.68;;
55007;SDS011;40902;45.116;21.296;2024-02-15T10:58:55;16.35;;;10.80;;
55007;SDS011;40902;45.116;21.296;2024-02-15T11:01:25;12.43;;;9.60;;
55007;SDS011;40902;45.116;21.296;2024-02-15T11:03:56;13.73;;;10.70;;
55007;SDS011;40902;45.116;21.296;2024-02-15T11:06:26;14.02;;;9.77;;
55007;SDS011;40902;45.116;21.296;2024-02-15T11:08:55;12.80;;;8.93;;
55007;SDS011;40902;45.116;21.296;2024-02-15T11:11:21;15.52;;;10.35;;
55007;SDS011;40902;45.116;21.296;2024-02-15T11:13:48;14.57;;;8.52;;
55007;SDS011;40902;45.116;21.296;2024-02-15T11:19:06;13.80;;;10.38;;
55007;SDS011;40902;45.116;21.296;2024-02-15T11:24:29;10.50;;;8.35;;
55007;SDS011;40902;45.116;21.296;2024-02-15T11:27:02;14.18;;;8.15;;
55007;SDS011;40902;45.116;21.296;2024-02-15T11:35:22;15.07;;;9.43;;
55007;SDS011;40902;45.116;21.296;2024-02-15T11:40:21;13.15;;;7.88;;
55007;SDS011;40902;45.116;21.296;2024-02-15T11:42:48;11.93;;;8.63;;
55007;SDS011;40902;45.116;21.296;2024-02-15T11:45:15;11.65;;;7.78;;
55007;SDS011;40902;45.116;21.296;2024-02-15T11:47:48;11.27;;;8.02;;
55007;SDS011;40902;45.116;21.296;2024-02-15T11:50:16;11.35;;;8.35;;
55007;SDS011;40902;45.116;21.296;2024-02-15T11:52:50;10.43;;;7.55;;
55007;SDS011;40902;45.116;21.296;2024-02-15T11:55:22;9.88;;;7.25;;
55007;SDS011;40902;45.116;21.296;2024-02-15T11:57:54;12.05;;;8.63;;
55007;SDS011;40902;45.116;21.296;2024-02-15T12:00:32;12.95;;;8.55;;
55007;SDS011;40902;45.116;21.296;2024-02-15T12:03:17;26.70;;;16.50;;
55007;SDS011;40902;45.116;21.296;2024-02-15T12:06:01;17.27;;;10.13;;
55007;SDS011;40902;45.116;21.296;2024-02-15T12:08:46;21.48;;;14.57;;
55007;SDS011;40902;45.116;21.296;2024-02-15T12:11:32;12.45;;;9.05;;
55007;SDS011;40902;45.116;21.296;2024-02-15T12:14:16;12.65;;;8.98;;
55007;SDS011;40902;45.116;21.296;2024-02-15T12:17:01;13.85;;;9.20;;
55007;SDS011;40902;45.116;21.296;2024-02-15T12:19:51;13.15;;;8.70;;
55007;SDS011;40902;45.116;21.296;2024-02-15T12:25:01;11.75;;;8.43;;
55007;SDS011;40902;45.116;21.296;2024-02-15T12:27:36;11.73;;;8.15;;
55007;SDS011;40902;45.116;21.296;2024-02-15T12:30:04;10.85;;;8.15;;
55007;SDS011;40902;45.116;21.296;2024-02-15T12:32:32;11.07;;;8.65;;
55007;SDS011;40902;45.116;21.296;2024-02-15T12:35:10;10.23;;;7.45;;
55007;SDS011;40902;45.116;21.296;2024-02-15T12:37:42;11.60;;;7.38;;
55007;SDS011;40902;45.116;21.296;2024-02-15T12:40:12;10.98;;;7.70;;
55007;SDS011;40902;45.116;21.296;2024-02-15T12:42:45;13.57;;;8.23;;
55007;SDS011;40902;45.116;21.296;2024-02-15T12:45:17;11.50;;;7.82;;
55007;SDS011;40902;45.116;21.296;2024-02-15T12:50:15;13.73;;;8.57;;
55007;SDS011;40902;45.116;21.296;2024-02-15T12:52:46;24.42;;;10.35;;
55007;SDS011;40902;45.116;21.296;2024-02-15T12:55:15;14.75;;;9.98;;
55007;SDS011;40902;45.116;21.296;2024-02-15T12:57:47;14.20;;;9.15;;
55007;SDS011;40902;45.116;21.296;2024-02-15T13:00:19;12.95;;;8.82;;
55007;SDS011;40902;45.116;21.296;2024-02-15T13:02:53;13.57;;;8.85;;
55007;SDS011;40902;45.116;21.296;2024-02-15T13:05:21;13.55;;;8.57;;
55007;SDS011;40902;45.116;21.296;2024-02-15T13:07:50;12.75;;;8.90;;
55007;SDS011;40902;45.116;21.296;2024-02-15T13:10:17;12.07;;;8.65;;
55007;SDS011;40902;45.116;21.296;2024-02-15T13:12:43;13.43;;;8.93;;
55007;SDS011;40902;45.116;21.296;2024-02-15T13:15:12;13.85;;;9.77;;
55007;SDS011;40902;45.116;21.296;2024-02-15T13:17:52;13.00;;;8.75;;
55007;SDS011;40902;45.116;21.296;2024-02-15T13:20:19;12.25;;;7.90;;
